createdAt,value
2019-04-26T00:01:19.190Z,100.00
2019-04-26T00:03:49.525Z,100.00
2019-04-26T00:06:20.097Z,100.00
2019-04-26T00:08:54.940Z,100.00
2019-04-26T00:11:42.539Z,100.00
2019-04-26T00:14:29.849Z,100.00
2019-04-26T00:17:13.414Z,100.00
2019-04-26T00:19:43.887Z,100.00
2019-04-26T00:22:14.129Z,100.00
2019-04-26T00:24:44.812Z,100.00
2019-04-26T00:27:14.793Z,100.00
2019-04-26T00:29:44.744Z,100.00
2019-04-26T00:32:15.051Z,100.00
2019-04-26T00:34:44.962Z,100.00
2019-04-26T00:37:15.860Z,100.00
2019-04-26T00:39:45.539Z,100.00
2019-04-26T00:42:16.495Z,100.00
2019-04-26T00:44:46.898Z,100.00
2019-04-26T00:47:19.097Z,100.00
2019-04-26T00:49:49.435Z,100.00
2019-04-26T00:52:19.950Z,100.00
2019-04-26T00:54:49.843Z,100.00
2019-04-26T00:57:20.424Z,100.00
2019-04-26T00:59:51.795Z,100.00
2019-04-26T01:02:33.507Z,100.00
2019-04-26T01:05:03.460Z,100.00
2019-04-26T01:07:33.253Z,100.00
2019-04-26T01:10:03.094Z,100.00
2019-04-26T01:12:32.913Z,100.00
2019-04-26T01:15:02.971Z,100.00
2019-04-26T01:17:32.722Z,100.00
2019-04-26T01:20:03.843Z,100.00
2019-04-26T01:22:36.415Z,100.00
2019-04-26T01:25:07.365Z,100.00
2019-04-26T01:27:38.422Z,100.00
2019-04-26T01:30:11.830Z,100.00
2019-04-26T01:32:43.001Z,100.00
2019-04-26T01:35:12.996Z,100.00
2019-04-26T01:37:45.580Z,100.00
2019-04-26T01:40:20.585Z,100.00
2019-04-26T01:43:01.316Z,100.00
2019-04-26T01:45:42.389Z,100.00
2019-04-26T01:48:42.432Z,100.00
2019-04-26T01:51:15.746Z,100.00
2019-04-26T01:53:48.159Z,100.00
2019-04-26T01:56:22.405Z,100.00
2019-04-26T01:58:54.574Z,100.00
2019-04-26T02:01:42.196Z,100.00
2019-04-26T02:04:12.606Z,100.00
2019-04-26T02:06:42.516Z,100.00
2019-04-26T02:09:12.854Z,100.00
2019-04-26T02:11:42.959Z,100.00
2019-04-26T02:14:13.254Z,100.00
2019-04-26T02:16:43.505Z,100.00
2019-04-26T02:19:13.347Z,100.00
2019-04-26T02:21:49.715Z,100.00
2019-04-26T02:24:27.991Z,100.00
2019-04-26T02:26:59.386Z,100.00
2019-04-26T02:29:30.403Z,100.00
2019-04-26T02:32:04.673Z,100.00
2019-04-26T02:34:37.974Z,100.00
2019-04-26T02:37:10.479Z,100.00
2019-04-26T02:39:41.970Z,100.00
2019-04-26T02:42:38.883Z,100.00
2019-04-26T02:45:40.071Z,100.00
2019-04-26T02:48:21.430Z,100.00
2019-04-26T02:50:57.127Z,100.00
2019-04-26T02:54:04.722Z,100.00
2019-04-26T02:56:39.354Z,100.00
2019-04-26T02:59:40.977Z,100.00
2019-04-26T03:02:37.358Z,100.00
2019-04-26T03:05:10.326Z,100.00
2019-04-26T03:07:51.081Z,100.00
2019-04-26T03:10:24.908Z,100.00
2019-04-26T03:12:57.185Z,100.00
2019-04-26T03:15:44.405Z,100.00
2019-04-26T03:18:48.113Z,100.00
2019-04-26T03:21:25.910Z,100.00
2019-04-26T03:24:06.684Z,100.00
2019-04-26T03:26:56.416Z,100.00
2019-04-26T03:29:48.400Z,100.00
2019-04-26T03:32:57.901Z,100.00
2019-04-26T03:35:57.824Z,100.00
2019-04-26T03:38:53.640Z,100.00
2019-04-26T03:41:38.986Z,100.00
2019-04-26T03:44:26.261Z,100.00
2019-04-26T03:47:01.229Z,100.00
2019-04-26T03:49:54.530Z,100.00
2019-04-26T03:52:59.621Z,100.00
2019-04-26T03:55:52.853Z,100.00
2019-04-26T03:58:30.380Z,100.00
2019-04-26T04:01:08.055Z,100.00
2019-04-26T04:03:55.924Z,100.00
2019-04-26T04:06:29.797Z,100.00
2019-04-26T04:09:05.709Z,100.00
2019-04-26T04:12:10.129Z,100.00
2019-04-26T04:14:52.226Z,100.00
2019-04-26T04:17:51.731Z,100.00
2019-04-26T04:21:05.816Z,100.00
2019-04-26T04:24:18.827Z,100.00
2019-04-26T04:27:19.603Z,100.00
2019-04-26T04:30:12.407Z,100.00
2019-04-26T04:33:29.027Z,100.00
2019-04-26T04:36:05.317Z,100.00
2019-04-26T04:39:20.058Z,100.00
2019-04-26T04:42:13.936Z,100.00
2019-04-26T04:45:25.641Z,100.00
2019-04-26T04:48:19.774Z,100.00
2019-04-26T04:51:11.779Z,100.00
2019-04-26T04:53:59.651Z,100.00
2019-04-26T04:57:05.149Z,100.00
2019-04-26T04:59:46.121Z,100.00
2019-04-26T05:02:32.390Z,100.00
2019-04-26T05:05:28.864Z,100.00
2019-04-26T05:08:19.356Z,100.00
2019-04-26T05:11:02.815Z,100.00
2019-04-26T05:13:45.192Z,100.00
2019-04-26T05:16:33.205Z,100.00
2019-04-26T05:19:51.362Z,100.00
2019-04-26T05:23:03.614Z,100.00
2019-04-26T05:26:37.775Z,100.00
2019-04-26T05:29:29.623Z,100.00
2019-04-26T05:32:26.544Z,100.00
2019-04-26T05:35:07.095Z,99.90
2019-04-26T05:38:18.706Z,98.61
2019-04-26T05:41:19.437Z,97.33
2019-04-26T05:44:20.658Z,95.72
2019-04-26T05:47:34.952Z,94.58
2019-04-26T05:51:02.174Z,96.59
2019-04-26T05:54:39.190Z,95.91
2019-04-26T05:57:30.051Z,95.04
2019-04-26T06:00:34.835Z,92.48
2019-04-26T06:03:40.722Z,91.92
2019-04-26T06:06:23.844Z,91.18
2019-04-26T06:09:52.875Z,90.63
2019-04-26T06:12:39.367Z,89.65
2019-04-26T06:15:33.642Z,89.54
2019-04-26T06:18:55.125Z,88.53
2019-04-26T06:22:07.535Z,88.42
2019-04-26T06:24:54.211Z,86.70
2019-04-26T06:27:43.681Z,86.46
2019-04-26T06:30:21.245Z,86.35
2019-04-26T06:33:11.769Z,85.32
2019-04-26T06:35:45.081Z,84.50
2019-04-26T06:39:11.910Z,84.11
2019-04-26T06:42:09.499Z,82.91
2019-04-26T06:45:31.774Z,83.63
2019-04-26T06:48:11.962Z,87.26
2019-04-26T06:50:47.226Z,85.29
2019-04-26T06:53:40.746Z,85.48
2019-04-26T06:56:35.410Z,86.21
2019-04-26T06:59:35.764Z,84.43
2019-04-26T07:02:04.116Z,85.18
2019-04-26T07:05:05.650Z,81.22
2019-04-26T07:07:54.472Z,77.66
2019-04-26T07:11:27.814Z,74.06
2019-04-26T07:14:29.239Z,73.02
2019-04-26T07:17:05.378Z,72.82
2019-04-26T07:20:28.780Z,71.72
2019-04-26T07:23:40.179Z,70.46
2019-04-26T07:26:55.249Z,70.21
2019-04-26T07:30:07.223Z,68.33
2019-04-26T07:33:12.722Z,68.77
2019-04-26T07:36:28.902Z,65.52
2019-04-26T07:39:20.257Z,65.59
2019-04-26T07:42:47.947Z,65.54
2019-04-26T07:45:51.479Z,65.83
2019-04-26T07:48:48.132Z,65.90
2019-04-26T07:51:58.704Z,65.56
2019-04-26T07:54:54.322Z,65.14
2019-04-26T07:57:51.216Z,65.03
2019-04-26T08:00:26.978Z,65.77
2019-04-26T08:03:12.809Z,67.42
2019-04-26T08:05:53.103Z,67.19
2019-04-26T08:08:25.814Z,66.62
2019-04-26T08:11:18.215Z,66.82
2019-04-26T08:14:06.129Z,66.86
2019-04-26T08:16:57.735Z,65.13
2019-04-26T08:19:30.332Z,65.41
2019-04-26T08:22:14.853Z,64.37
2019-04-26T08:24:37.901Z,66.77
2019-04-26T08:27:23.302Z,66.02
2019-04-26T08:29:52.525Z,66.84
2019-04-26T08:32:28.194Z,68.81
2019-04-26T08:35:08.203Z,70.87
2019-04-26T08:37:52.673Z,69.47
2019-04-26T08:40:30.779Z,70.42
2019-04-26T08:43:30.849Z,70.63
2019-04-26T08:46:23.632Z,69.58
2019-04-26T08:49:20.545Z,69.46
2019-04-26T08:51:52.132Z,68.48
2019-04-26T08:54:28.962Z,68.50
2019-04-26T08:57:05.937Z,68.37
2019-04-26T08:59:39.815Z,67.79
2019-04-26T09:02:27.990Z,68.17
2019-04-26T09:05:19.711Z,70.25
2019-04-26T09:07:53.500Z,70.36
2019-04-26T09:10:26.430Z,69.69
2019-04-26T09:12:58.979Z,68.98
2019-04-26T09:15:47.975Z,69.59
2019-04-26T09:18:19.053Z,71.15
2019-04-26T09:20:49.080Z,71.83
2019-04-26T09:23:40.294Z,72.76
2019-04-26T09:26:12.548Z,74.70
2019-04-26T09:29:00.576Z,74.11
2019-04-26T09:31:43.080Z,74.33
2019-04-26T09:34:14.507Z,75.55
2019-04-26T09:36:45.040Z,74.81
2019-04-26T09:39:15.719Z,74.76
2019-04-26T09:41:45.616Z,74.80
2019-04-26T09:44:41.334Z,74.46
2019-04-26T09:47:36.625Z,74.64
2019-04-26T09:50:41.416Z,73.71
2019-04-26T09:53:11.180Z,73.31
2019-04-26T09:55:41.511Z,71.72
2019-04-26T09:58:11.388Z,70.57
2019-04-26T10:00:44.186Z,70.77
2019-04-26T10:03:12.699Z,69.99
2019-04-26T10:05:42.542Z,68.00
2019-04-26T10:08:14.205Z,68.51
2019-04-26T10:10:43.885Z,70.40
2019-04-26T10:13:50.831Z,70.82
2019-04-26T10:16:43.431Z,71.78
2019-04-26T10:19:16.300Z,74.54
2019-04-26T10:21:46.215Z,73.88
2019-04-26T10:24:16.028Z,75.30
2019-04-26T10:26:45.792Z,75.91
2019-04-26T10:29:15.577Z,76.60
2019-04-26T10:31:47.563Z,76.09
2019-04-26T10:34:18.284Z,78.17
2019-04-26T10:36:49.338Z,78.34
2019-04-26T10:39:19.221Z,78.16
2019-04-26T10:41:49.041Z,79.70
2019-04-26T10:44:19.182Z,80.53
2019-04-26T10:46:55.474Z,81.54
2019-04-26T10:49:48.504Z,80.83
2019-04-26T10:52:37.767Z,82.49
2019-04-26T10:55:27.758Z,81.13
2019-04-26T10:58:05.409Z,79.93
2019-04-26T11:00:38.831Z,78.41
2019-04-26T11:03:08.544Z,78.32
2019-04-26T11:05:39.713Z,78.22
2019-04-26T11:08:09.606Z,75.95
2019-04-26T11:10:48.390Z,73.78
2019-04-26T11:13:12.436Z,75.35
2019-04-26T11:15:42.458Z,76.63
2019-04-26T11:18:19.838Z,76.22
2019-04-26T11:20:47.817Z,76.52
2019-04-26T11:23:17.616Z,75.37
2019-04-26T11:25:48.777Z,75.18
2019-04-26T11:28:21.521Z,75.96
2019-04-26T11:30:51.993Z,75.31
2019-04-26T11:33:22.753Z,75.97
2019-04-26T11:35:52.557Z,77.10
2019-04-26T11:38:22.598Z,78.23
2019-04-26T11:41:06.031Z,78.10
2019-04-26T11:43:25.037Z,77.71
2019-04-26T11:46:04.191Z,76.61
2019-04-26T11:48:29.191Z,76.93
2019-04-26T11:50:59.227Z,77.33
2019-04-26T11:53:29.126Z,77.53
2019-04-26T11:56:00.229Z,76.50
2019-04-26T11:58:30.678Z,76.44
2019-04-26T12:01:02.867Z,77.08
2019-04-26T12:03:32.661Z,76.80
2019-04-26T12:06:09.419Z,77.67
2019-04-26T12:08:50.649Z,77.47
2019-04-26T12:11:26.167Z,76.99
2019-04-26T12:13:55.375Z,77.04
2019-04-26T12:16:23.755Z,76.59
2019-04-26T12:18:53.674Z,77.27
2019-04-26T12:21:23.648Z,78.91
2019-04-26T12:23:55.461Z,77.92
2019-04-26T12:26:24.844Z,78.35
2019-04-26T12:28:54.513Z,78.99
2019-04-26T12:31:24.297Z,75.98
2019-04-26T12:33:54.197Z,73.34
2019-04-26T12:36:24.184Z,71.49
2019-04-26T12:38:53.827Z,70.76
2019-04-26T12:41:39.438Z,68.25
2019-04-26T12:43:59.537Z,67.26
2019-04-26T12:46:37.010Z,65.56
2019-04-26T12:49:06.937Z,68.32
2019-04-26T12:51:38.238Z,66.57
2019-04-26T12:54:09.940Z,67.51
2019-04-26T12:56:39.957Z,69.91
2019-04-26T12:59:09.765Z,68.37
2019-04-26T13:01:42.667Z,67.76
2019-04-26T13:04:11.325Z,66.98
2019-04-26T13:06:49.433Z,70.00
2019-04-26T13:09:22.012Z,68.39
2019-04-26T13:12:09.354Z,64.85
2019-04-26T13:15:04.073Z,62.95
2019-04-26T13:17:45.883Z,65.42
2019-04-26T13:20:16.978Z,65.69
2019-04-26T13:22:50.303Z,64.87
2019-04-26T13:25:26.274Z,65.58
2019-04-26T13:27:49.916Z,64.95
2019-04-26T13:30:32.276Z,63.65
2019-04-26T13:32:53.341Z,65.91
2019-04-26T13:35:24.176Z,66.98
2019-04-26T13:37:54.080Z,67.34
2019-04-26T13:40:25.654Z,66.36
2019-04-26T13:42:55.659Z,64.89
2019-04-26T13:45:42.826Z,67.87
2019-04-26T13:48:31.469Z,69.01
2019-04-26T13:51:05.843Z,69.17
2019-04-26T13:53:35.965Z,67.73
2019-04-26T13:56:06.087Z,65.79
2019-04-26T13:58:36.010Z,66.38
2019-04-26T14:01:06.993Z,67.75
2019-04-26T14:03:36.819Z,68.82
2019-04-26T14:06:06.703Z,67.40
2019-04-26T14:08:36.493Z,68.49
2019-04-26T14:11:07.462Z,71.38
2019-04-26T14:13:37.373Z,70.24
2019-04-26T14:16:07.249Z,68.70
2019-04-26T14:18:39.081Z,67.34
2019-04-26T14:21:09.043Z,67.46
2019-04-26T14:23:51.089Z,70.67
2019-04-26T14:26:25.193Z,70.05
2019-04-26T14:29:01.881Z,71.32
2019-04-26T14:31:31.827Z,70.88
2019-04-26T14:34:05.358Z,68.95
2019-04-26T14:36:32.944Z,67.23
2019-04-26T14:39:05.944Z,68.62
2019-04-26T14:41:34.567Z,69.40
2019-04-26T14:44:15.275Z,71.37
2019-04-26T14:46:48.170Z,72.26
2019-04-26T14:49:07.412Z,73.27
2019-04-26T14:51:37.252Z,75.60
2019-04-26T14:54:11.017Z,75.63
2019-04-26T14:56:51.494Z,75.82
2019-04-26T14:59:11.886Z,73.64
2019-04-26T15:02:06.158Z,74.57
2019-04-26T15:04:58.160Z,75.40
2019-04-26T15:07:28.232Z,75.86
2019-04-26T15:09:58.981Z,77.46
2019-04-26T15:12:28.860Z,76.92
2019-04-26T15:14:58.833Z,75.52
2019-04-26T15:17:28.645Z,76.12
2019-04-26T15:19:58.504Z,76.15
2019-04-26T15:22:28.374Z,75.80
2019-04-26T15:24:58.166Z,75.29
2019-04-26T15:27:32.251Z,75.60
2019-04-26T15:30:01.527Z,77.25
2019-04-26T15:32:35.126Z,77.93
2019-04-26T15:35:04.009Z,80.07
2019-04-26T15:37:33.924Z,79.08
2019-04-26T15:40:14.253Z,77.56
2019-04-26T15:43:02.553Z,78.88
2019-04-26T15:45:52.776Z,81.57
2019-04-26T15:48:56.663Z,81.19
2019-04-26T15:51:29.339Z,80.89
2019-04-26T15:53:59.133Z,81.17
2019-04-26T15:56:28.966Z,80.96
2019-04-26T15:59:00.101Z,80.45
2019-04-26T16:01:29.877Z,79.82
2019-04-26T16:03:59.825Z,80.96
2019-04-26T16:06:29.688Z,81.62
2019-04-26T16:08:59.568Z,81.22
2019-04-26T16:11:29.579Z,81.74
2019-04-26T16:13:59.439Z,82.83
2019-04-26T16:16:32.444Z,84.92
2019-04-26T16:19:00.946Z,85.05
2019-04-26T16:21:32.353Z,87.56
2019-04-26T16:24:02.759Z,88.75
2019-04-26T16:26:33.006Z,90.13
2019-04-26T16:29:25.114Z,91.42
2019-04-26T16:32:16.918Z,93.12
2019-04-26T16:34:47.776Z,96.73
2019-04-26T16:37:21.846Z,100.00
2019-04-26T16:39:48.704Z,100.00
2019-04-26T16:42:19.917Z,100.00
2019-04-26T16:44:49.668Z,100.00
2019-04-26T16:47:19.514Z,100.00
2019-04-26T16:49:49.485Z,100.00
2019-04-26T16:52:19.343Z,100.00
2019-04-26T16:54:49.307Z,100.00
2019-04-26T16:57:19.332Z,100.00
2019-04-26T16:59:56.970Z,100.00
2019-04-26T17:02:26.396Z,100.00
2019-04-26T17:04:53.546Z,100.00
2019-04-26T17:07:27.458Z,100.00
2019-04-26T17:09:59.342Z,100.00
2019-04-26T17:12:26.392Z,100.00
2019-04-26T17:14:56.042Z,100.00
2019-04-26T17:17:25.905Z,100.00
2019-04-26T17:19:55.781Z,100.00
2019-04-26T17:22:44.494Z,100.00
2019-04-26T17:25:24.289Z,100.00
2019-04-26T17:27:52.962Z,100.00
2019-04-26T17:30:25.385Z,100.00
2019-04-26T17:32:55.435Z,100.00
2019-04-26T17:35:25.592Z,100.00
2019-04-26T17:37:57.375Z,100.00
2019-04-26T17:40:30.175Z,100.00
2019-04-26T17:43:00.415Z,100.00
2019-04-26T17:45:30.670Z,100.00
2019-04-26T17:48:01.464Z,100.00
2019-04-26T17:50:31.463Z,100.00
2019-04-26T17:53:01.492Z,100.00
2019-04-26T17:55:33.604Z,100.00
2019-04-26T17:58:11.997Z,100.00
2019-04-26T18:00:45.800Z,100.00
2019-04-26T18:03:11.674Z,100.00
2019-04-26T18:05:55.788Z,100.00
2019-04-26T18:08:33.549Z,100.00
2019-04-26T18:10:44.715Z,100.00
2019-04-26T18:13:16.444Z,100.00
2019-04-26T18:15:48.510Z,100.00
2019-04-26T18:18:35.601Z,100.00
2019-04-26T18:21:23.271Z,100.00
2019-04-26T18:23:57.065Z,100.00
2019-04-26T18:26:24.997Z,100.00
2019-04-26T18:28:55.368Z,100.00
2019-04-26T18:31:28.632Z,100.00
2019-04-26T18:34:00.809Z,100.00
2019-04-26T18:36:32.031Z,100.00
2019-04-26T18:39:03.848Z,100.00
2019-04-26T18:41:34.053Z,100.00
2019-04-26T18:44:03.966Z,100.00
2019-04-26T18:46:46.916Z,100.00
2019-04-26T18:49:18.253Z,100.00
2019-04-26T18:51:48.283Z,100.00
2019-04-26T18:54:39.488Z,100.00
2019-04-26T18:57:09.571Z,100.00
2019-04-26T18:59:44.836Z,100.00
2019-04-26T19:02:18.704Z,100.00
2019-04-26T19:04:48.061Z,100.00
2019-04-26T19:07:17.654Z,100.00
2019-04-26T19:09:58.830Z,100.00
2019-04-26T19:12:23.291Z,100.00
2019-04-26T19:15:15.147Z,100.00
2019-04-26T19:18:12.691Z,100.00
2019-04-26T19:21:03.122Z,100.00
2019-04-26T19:23:34.239Z,100.00
2019-04-26T19:26:04.354Z,100.00
2019-04-26T19:28:36.000Z,100.00
2019-04-26T19:31:06.910Z,100.00
2019-04-26T19:33:36.845Z,100.00
2019-04-26T19:36:06.788Z,100.00
2019-04-26T19:38:37.823Z,100.00
2019-04-26T19:41:07.623Z,100.00
2019-04-26T19:43:39.251Z,100.00
2019-04-26T19:46:16.937Z,100.00
2019-04-26T19:49:04.722Z,100.00
2019-04-26T19:51:56.588Z,100.00
2019-04-26T19:54:36.901Z,100.00
2019-04-26T19:57:23.436Z,100.00
2019-04-26T19:59:52.860Z,100.00
2019-04-26T20:02:26.765Z,100.00
2019-04-26T20:04:54.610Z,100.00
2019-04-26T20:07:28.231Z,100.00
2019-04-26T20:09:56.315Z,100.00
2019-04-26T20:12:29.438Z,100.00
2019-04-26T20:14:59.321Z,100.00
2019-04-26T20:17:29.113Z,100.00
2019-04-26T20:19:59.031Z,100.00
2019-04-26T20:22:30.194Z,100.00
2019-04-26T20:25:02.335Z,100.00
2019-04-26T20:27:32.457Z,100.00
2019-04-26T20:30:04.104Z,100.00
2019-04-26T20:32:36.686Z,100.00
2019-04-26T20:35:13.794Z,100.00
2019-04-26T20:37:45.159Z,100.00
2019-04-26T20:40:21.794Z,100.00
2019-04-26T20:42:47.752Z,100.00
2019-04-26T20:45:18.999Z,100.00
2019-04-26T20:47:52.081Z,100.00
2019-04-26T20:50:21.774Z,100.00
2019-04-26T20:52:55.537Z,100.00
2019-04-26T20:55:30.340Z,100.00
2019-04-26T20:57:56.259Z,100.00
2019-04-26T21:00:26.059Z,100.00
2019-04-26T21:03:01.222Z,100.00
2019-04-26T21:05:28.570Z,100.00
2019-04-26T21:07:58.362Z,100.00
2019-04-26T21:10:28.062Z,100.00
2019-04-26T21:12:57.962Z,100.00
2019-04-26T21:15:27.597Z,100.00
2019-04-26T21:18:02.749Z,100.00
2019-04-26T21:20:34.477Z,100.00
2019-04-26T21:23:02.329Z,100.00
2019-04-26T21:25:52.441Z,100.00
2019-04-26T21:28:51.961Z,100.00
2019-04-26T21:31:45.035Z,100.00
2019-04-26T21:34:37.685Z,100.00
2019-04-26T21:37:22.263Z,100.00
2019-04-26T21:40:23.323Z,100.00
2019-04-26T21:42:55.352Z,100.00
2019-04-26T21:45:28.396Z,100.00
2019-04-26T21:47:54.396Z,100.00
2019-04-26T21:50:24.179Z,100.00
2019-04-26T21:52:54.209Z,100.00
2019-04-26T21:55:27.732Z,100.00
2019-04-26T21:57:55.413Z,100.00
2019-04-26T22:00:43.651Z,100.00
2019-04-26T22:03:16.021Z,100.00
2019-04-26T22:05:49.744Z,100.00
2019-04-26T22:08:24.580Z,100.00
2019-04-26T22:10:50.055Z,100.00
2019-04-26T22:13:41.660Z,100.00
2019-04-26T22:16:34.142Z,100.00
2019-04-26T22:19:14.591Z,100.00
2019-04-26T22:21:52.829Z,100.00
2019-04-26T22:24:27.492Z,100.00
2019-04-26T22:26:57.119Z,100.00
2019-04-26T22:29:27.052Z,100.00
2019-04-26T22:31:56.995Z,100.00
2019-04-26T22:34:27.101Z,100.00
2019-04-26T22:36:57.116Z,100.00
2019-04-26T22:39:27.024Z,100.00
2019-04-26T22:41:58.434Z,100.00
2019-04-26T22:44:43.592Z,100.00
2019-04-26T22:47:25.284Z,100.00
2019-04-26T22:49:55.091Z,100.00
2019-04-26T22:52:24.960Z,100.00
2019-04-26T22:54:55.055Z,100.00
2019-04-26T22:57:24.950Z,100.00
2019-04-26T22:59:54.716Z,100.00
2019-04-26T23:02:27.605Z,100.00
2019-04-26T23:05:00.681Z,100.00
2019-04-26T23:07:28.820Z,100.00
2019-04-26T23:09:58.702Z,100.00
2019-04-26T23:13:04.493Z,100.00
2019-04-26T23:15:53.339Z,100.00
2019-04-26T23:18:49.398Z,100.00
2019-04-26T23:21:31.214Z,100.00
2019-04-26T23:24:01.066Z,100.00
2019-04-26T23:26:30.859Z,100.00
2019-04-26T23:29:00.567Z,100.00
2019-04-26T23:31:33.360Z,100.00
2019-04-26T23:34:03.267Z,100.00
2019-04-26T23:36:34.844Z,100.00
2019-04-26T23:39:07.565Z,100.00
2019-04-26T23:41:41.686Z,100.00
2019-04-26T23:44:09.692Z,100.00
2019-04-26T23:46:39.581Z,100.00
2019-04-26T23:49:09.540Z,100.00
2019-04-26T23:51:43.117Z,100.00
2019-04-26T23:54:10.791Z,100.00
2019-04-26T23:56:40.664Z,100.00
2019-04-26T23:59:10.645Z,100.00
